Caldwell, OH (43724)

6:52 PM EDT on August 27, 2015 (GMT -0400)
APRSWXNET | | Change Station
CLOSE
Current Station
Personal Weather Station
Location: Buffalo, OH
Elevation: 941 ft
Nearby Weather Stations

Elev 941 ft 39.90 °N, 81.50 °W | Updated 32 minutes ago

Clear
Clear
74 °F
Feels Like 77 °F
N
0
Wind Variable Wind from ESE
Gusts 1.0 mph

Today
High -- | Low -- °F
--% Chance of Precip.
Yesterday
High -- | Low -- °F
Precip. -- in
6:49 AM 8:05 PM
Waxing Gibbous, 95% visible
Pressure 30.12 in
Visibility 10.0 miles
Clouds Mostly Cloudy 7000 ft
Heat Index 77 °F
Dew Point 56 °F
Humidity 54%
Rainfall in
Snow Depth Not available.
UV 1 out of 12
Pollen 9.90 out of 12
Air Quality Not available.
Flu Activity Not available.
METAR KZZV 272153Z AUTO 06003KT 10SM BKN070 23/11 A3014 RMK AO2 SLP200 T02330106 TSNO
Pressure 30.12 in
Visibility 10.0 miles
Clouds Mostly Cloudy 7000 ft
Heat Index 77 °F
Dew Point 56 °F
Humidity 54%
Rainfall in
Snow Depth Not available.
UV 1 out of 12
Pollen 9.90 out of 12
Air Quality Not available.
Flu Activity Not available.
METAR KZZV 272153Z AUTO 06003KT 10SM BKN070 23/11 A3014 RMK AO2 SLP200 T02330106 TSNO

10-Day Weather Forecast

×

Almanac

Astronomy

Aug. 27, 2015 Rise Set
Actual Time
Civil Twilight
Nautical Twilight
Astronomical Twilight
Moon
Length of Visible Light
Length of Day
Tomorrow will be .
, % of the Moon is Illuminated

Today's Extremes

State Highs State Lows

Community

WunderPhotos

Upload Photos

1,850,252 photos uploaded!

WunderBlogs® & News

Nearby

Air Quality

  Air Quality AQ Index Pollutant
Not available.

Snow Depth

Station Depth Elevation

Earthquake Activity

City Distance Mag. Time & Date
Minimum magnitude displayed is 2.5.

Coastal Water Temperatures

Place Temperature

Stations

Nearby Weather Stations

Station Location Temp. Windchill Dew Point Humidity Wind Precip. Elev Updated Type